createdAt,value
2023-04-20T00:00:12.872Z,30.10
2023-04-20T00:02:43.287Z,30.20
2023-04-20T00:05:14.040Z,30.10
2023-04-20T00:07:44.360Z,30.10
2023-04-20T00:10:14.433Z,30.20
2023-04-20T00:12:47.453Z,30.20
2023-04-20T00:15:17.478Z,30.30
2023-04-20T00:17:47.998Z,30.30
2023-04-20T00:20:18.164Z,30.40
2023-04-20T00:22:48.263Z,30.40
2023-04-20T00:25:18.191Z,30.50
2023-04-20T00:27:47.871Z,30.50
2023-04-20T00:30:18.151Z,30.60
2023-04-20T00:32:47.872Z,30.60
2023-04-20T00:35:18.115Z,30.60
2023-04-20T00:37:47.902Z,30.60
2023-04-20T00:40:17.858Z,30.70
2023-04-20T00:42:47.637Z,30.70
2023-04-20T00:45:18.574Z,30.70
2023-04-20T00:47:48.855Z,30.70
2023-04-20T00:50:19.720Z,30.80
2023-04-20T00:52:50.265Z,30.80
2023-04-20T00:55:20.848Z,30.90
2023-04-20T00:57:51.394Z,31.00
2023-04-20T01:00:21.775Z,31.10
2023-04-20T01:02:51.586Z,31.10
2023-04-20T01:05:22.709Z,31.20
2023-04-20T01:07:53.063Z,31.20
2023-04-20T01:10:23.612Z,31.20
2023-04-20T01:12:53.691Z,31.40
2023-04-20T01:15:23.576Z,31.40
2023-04-20T01:17:53.862Z,31.50
2023-04-20T01:20:25.147Z,31.50
2023-04-20T01:22:56.353Z,31.50
2023-04-20T01:25:26.475Z,31.70
2023-04-20T01:27:56.494Z,31.80
2023-04-20T01:30:26.252Z,31.80
2023-04-20T01:32:56.119Z,31.80
2023-04-20T01:35:25.853Z,31.90
2023-04-20T01:37:55.871Z,32.00
2023-04-20T01:40:27.206Z,32.00
2023-04-20T01:42:57.319Z,32.10
2023-04-20T01:45:27.241Z,32.10
2023-04-20T01:47:57.177Z,32.20
2023-04-20T01:50:27.519Z,32.20
2023-04-20T01:52:57.626Z,32.40
2023-04-20T01:55:27.349Z,32.60
2023-04-20T01:57:57.155Z,32.60
2023-04-20T02:00:26.950Z,32.60
2023-04-20T02:02:57.468Z,32.70
2023-04-20T02:05:27.554Z,32.70
2023-04-20T02:08:00.517Z,32.70
2023-04-20T02:10:30.584Z,32.60
2023-04-20T02:13:00.554Z,32.80
2023-04-20T02:15:30.449Z,32.90
2023-04-20T02:18:00.664Z,33.20
2023-04-20T02:20:31.174Z,33.20
2023-04-20T02:23:00.975Z,33.30
2023-04-20T02:25:31.138Z,33.30
2023-04-20T02:28:01.073Z,33.20
2023-04-20T02:30:31.051Z,33.40
2023-04-20T02:33:01.934Z,33.50
2023-04-20T02:35:32.149Z,33.50
2023-04-20T02:38:01.779Z,33.60
2023-04-20T02:40:32.429Z,33.70
2023-04-20T02:43:02.584Z,33.80
2023-04-20T02:45:35.006Z,34.00
2023-04-20T02:48:05.342Z,34.00
2023-04-20T02:50:36.787Z,34.00
2023-04-20T02:53:18.830Z,34.00
2023-04-20T02:55:53.901Z,34.10
2023-04-20T02:58:40.738Z,34.20
2023-04-20T03:01:30.636Z,34.20
2023-04-20T03:04:07.974Z,34.40
2023-04-20T03:06:42.621Z,34.50
2023-04-20T03:09:17.640Z,34.40
2023-04-20T03:11:59.415Z,34.60
2023-04-20T03:14:49.094Z,34.60
2023-04-20T03:17:25.933Z,34.90
2023-04-20T03:19:56.126Z,34.90
2023-04-20T03:22:26.768Z,35.00
2023-04-20T03:25:00.804Z,34.90
2023-04-20T03:27:49.513Z,35.00
2023-04-20T03:30:21.554Z,35.10
2023-04-20T03:32:57.666Z,34.80
2023-04-20T03:35:28.571Z,35.00
2023-04-20T03:37:58.904Z,35.20
2023-04-20T03:40:28.760Z,35.20
2023-04-20T03:42:58.680Z,35.30
2023-04-20T03:45:28.436Z,35.50
2023-04-20T03:47:58.642Z,35.60
2023-04-20T03:50:29.696Z,35.70
2023-04-20T03:53:00.583Z,35.70
2023-04-20T03:55:30.685Z,35.80
2023-04-20T03:58:08.500Z,35.80
2023-04-20T04:01:03.135Z,35.80
2023-04-20T04:03:38.408Z,35.80
2023-04-20T04:06:09.292Z,36.00
2023-04-20T04:08:39.112Z,36.00
2023-04-20T04:11:09.221Z,35.90
2023-04-20T04:13:38.936Z,36.00
2023-04-20T04:16:11.693Z,36.10
2023-04-20T04:18:46.032Z,36.30
2023-04-20T04:21:16.690Z,36.40
2023-04-20T04:23:53.538Z,36.40
2023-04-20T04:26:43.020Z,36.50
2023-04-20T04:29:15.488Z,36.50
2023-04-20T04:31:45.712Z,36.50
2023-04-20T04:34:20.359Z,36.50
2023-04-20T04:36:54.106Z,36.80
2023-04-20T04:39:32.499Z,37.00
2023-04-20T04:42:13.770Z,36.80
2023-04-20T04:44:45.375Z,36.90
2023-04-20T04:47:23.432Z,36.90
2023-04-20T04:49:54.471Z,37.10
2023-04-20T04:52:25.308Z,37.20
2023-04-20T04:54:54.973Z,37.40
2023-04-20T04:57:24.994Z,37.20
2023-04-20T04:59:54.704Z,37.40
2023-04-20T05:02:24.624Z,37.60
2023-04-20T05:04:54.476Z,37.30
2023-04-20T05:07:24.530Z,37.50
2023-04-20T05:09:54.200Z,37.70
2023-04-20T05:12:24.056Z,37.50
2023-04-20T05:14:54.648Z,37.50
2023-04-20T05:17:24.693Z,37.60
2023-04-20T05:19:54.320Z,37.70
2023-04-20T05:22:24.149Z,37.90
2023-04-20T05:24:53.746Z,37.90
2023-04-20T05:27:23.584Z,37.80
2023-04-20T05:29:53.332Z,38.00
2023-04-20T05:32:23.170Z,38.30
2023-04-20T05:34:52.975Z,38.40
2023-04-20T05:37:22.835Z,38.00
2023-04-20T05:39:52.669Z,38.30
2023-04-20T05:42:22.561Z,38.40
2023-04-20T05:44:52.244Z,38.50
2023-04-20T05:47:22.575Z,38.40
2023-04-20T05:49:52.682Z,38.60
2023-04-20T05:52:23.183Z,38.50
2023-04-20T05:54:52.957Z,38.60
2023-04-20T05:57:24.476Z,38.60
2023-04-20T05:59:54.569Z,38.80
2023-04-20T06:02:24.247Z,38.80
2023-04-20T06:04:54.230Z,38.90
2023-04-20T06:07:23.832Z,38.90
2023-04-20T06:09:53.705Z,38.90
2023-04-20T06:12:25.164Z,38.90
2023-04-20T06:14:56.267Z,39.00
2023-04-20T06:17:26.263Z,39.10
2023-04-20T06:19:56.187Z,39.30
2023-04-20T06:22:25.900Z,39.20
2023-04-20T06:24:55.986Z,39.10
2023-04-20T06:27:25.625Z,38.90
2023-04-20T06:29:56.416Z,39.10
2023-04-20T06:32:26.443Z,39.20
2023-04-20T06:34:56.134Z,39.10
2023-04-20T06:37:25.984Z,39.10
2023-04-20T06:39:56.507Z,39.20
2023-04-20T06:42:26.527Z,39.30
2023-04-20T06:44:59.484Z,39.30
2023-04-20T06:47:35.433Z,39.40
2023-04-20T06:50:10.581Z,39.40
2023-04-20T06:52:42.614Z,39.40
2023-04-20T06:55:12.607Z,39.60
2023-04-20T06:57:45.171Z,39.50
2023-04-20T07:00:15.789Z,39.50
2023-04-20T07:02:52.863Z,39.50
2023-04-20T07:05:23.116Z,39.50
2023-04-20T07:07:53.025Z,39.30
2023-04-20T07:10:23.387Z,39.60
2023-04-20T07:12:53.450Z,39.60
2023-04-20T07:15:24.591Z,39.60
2023-04-20T07:17:54.871Z,39.60
2023-04-20T07:20:24.847Z,39.60
2023-04-20T07:22:54.725Z,39.90
2023-04-20T07:25:24.835Z,40.20
2023-04-20T07:27:54.706Z,40.00
2023-04-20T07:30:24.517Z,40.00
2023-04-20T07:32:54.499Z,40.10
2023-04-20T07:35:24.466Z,39.80
2023-04-20T07:37:54.491Z,40.00
2023-04-20T07:40:24.342Z,40.20
2023-04-20T07:42:54.197Z,40.00
2023-04-20T07:45:25.598Z,40.10
2023-04-20T07:47:56.948Z,40.10
2023-04-20T07:50:27.117Z,40.00
2023-04-20T07:52:57.454Z,40.10
2023-04-20T07:55:27.591Z,40.20
2023-04-20T07:57:57.302Z,40.30
2023-04-20T08:00:27.596Z,40.00
2023-04-20T08:02:57.507Z,40.00
2023-04-20T08:05:27.777Z,39.80
2023-04-20T08:07:57.708Z,39.90
2023-04-20T08:10:27.724Z,40.00
2023-04-20T08:12:57.574Z,40.00
2023-04-20T08:15:27.833Z,40.10
2023-04-20T08:18:00.914Z,39.90
2023-04-20T08:20:31.081Z,40.20
2023-04-20T08:23:00.855Z,39.90
2023-04-20T08:25:30.701Z,40.00
2023-04-20T08:28:00.521Z,40.10
2023-04-20T08:30:30.737Z,40.00
2023-04-20T08:33:01.093Z,40.00
2023-04-20T08:35:33.293Z,39.90
2023-04-20T08:38:03.258Z,39.70
2023-04-20T08:40:33.684Z,39.90
2023-04-20T08:43:04.178Z,39.80
2023-04-20T08:45:37.114Z,39.80
2023-04-20T08:48:12.035Z,39.90
2023-04-20T08:50:43.941Z,39.70
2023-04-20T08:53:15.712Z,39.70
2023-04-20T08:55:45.668Z,39.60
2023-04-20T08:58:15.352Z,39.60
2023-04-20T09:00:50.007Z,39.70
2023-04-20T09:03:43.431Z,39.70
2023-04-20T09:06:22.188Z,39.60
2023-04-20T09:08:53.355Z,39.60
2023-04-20T09:11:31.395Z,39.40
2023-04-20T09:14:11.740Z,39.50
2023-04-20T09:17:07.242Z,39.30
2023-04-20T09:19:37.312Z,39.40
2023-04-20T09:22:08.148Z,39.40
2023-04-20T09:24:43.061Z,39.40
2023-04-20T09:27:21.030Z,39.10
2023-04-20T09:30:05.600Z,39.20
2023-04-20T09:32:38.092Z,39.20
2023-04-20T09:35:10.023Z,39.20
2023-04-20T09:37:50.263Z,39.20
2023-04-20T09:40:23.218Z,39.00
2023-04-20T09:42:55.279Z,38.90
2023-04-20T09:45:26.052Z,38.90
2023-04-20T09:47:57.368Z,38.80
2023-04-20T09:50:35.241Z,38.70
2023-04-20T09:53:12.816Z,38.70
2023-04-20T09:55:50.436Z,38.70
2023-04-20T09:58:23.462Z,38.50
2023-04-20T10:00:53.564Z,38.40
2023-04-20T10:03:23.343Z,38.30
2023-04-20T10:05:57.024Z,38.30
2023-04-20T10:08:27.054Z,38.20
2023-04-20T10:10:59.694Z,38.10
2023-04-20T10:13:35.774Z,38.00
2023-04-20T10:16:05.684Z,38.10
2023-04-20T10:18:35.660Z,38.00
2023-04-20T10:21:11.248Z,37.90
2023-04-20T10:23:54.463Z,37.90
2023-04-20T10:26:25.187Z,37.90
2023-04-20T10:28:54.870Z,37.80
2023-04-20T10:31:25.015Z,37.90
2023-04-20T10:33:58.421Z,37.80
2023-04-20T10:36:35.397Z,37.80
2023-04-20T10:39:25.149Z,37.70
2023-04-20T10:41:57.547Z,37.70
2023-04-20T10:44:27.934Z,37.70
2023-04-20T10:46:58.589Z,37.60
2023-04-20T10:49:30.835Z,37.60
2023-04-20T10:52:00.721Z,37.60
2023-04-20T10:54:40.246Z,37.60
2023-04-20T10:57:10.532Z,37.60
2023-04-20T10:59:42.886Z,37.50
2023-04-20T11:02:15.794Z,37.40
2023-04-20T11:04:45.776Z,37.40
2023-04-20T11:07:15.517Z,37.40
2023-04-20T11:09:46.097Z,37.30
2023-04-20T11:12:17.484Z,37.30
2023-04-20T11:15:01.760Z,37.20
2023-04-20T11:17:38.738Z,37.10
2023-04-20T11:20:19.052Z,37.10
2023-04-20T11:23:01.997Z,37.10
2023-04-20T11:25:35.097Z,37.00
2023-04-20T11:28:11.394Z,37.10
2023-04-20T11:30:44.930Z,37.30
2023-04-20T11:33:15.567Z,37.40
2023-04-20T11:35:45.924Z,37.30
2023-04-20T11:38:15.653Z,37.40
2023-04-20T11:40:45.706Z,37.30
2023-04-20T11:43:15.331Z,37.40
2023-04-20T11:45:45.863Z,37.40
2023-04-20T11:48:20.138Z,37.30
2023-04-20T11:50:50.252Z,37.20
2023-04-20T11:53:20.322Z,37.30
2023-04-20T11:55:51.579Z,37.20
2023-04-20T11:58:21.634Z,37.30
2023-04-20T12:00:51.389Z,37.20
2023-04-20T12:03:22.609Z,37.30
2023-04-20T12:05:53.097Z,37.30
2023-04-20T12:08:22.915Z,37.20
2023-04-20T12:10:52.880Z,37.20
2023-04-20T12:13:22.545Z,37.20
2023-04-20T12:15:52.835Z,37.20
2023-04-20T12:18:24.747Z,37.20
2023-04-20T12:20:54.526Z,37.20
2023-04-20T12:23:24.488Z,37.20
2023-04-20T12:25:54.267Z,37.10
2023-04-20T12:28:24.388Z,37.10
2023-04-20T12:30:54.089Z,37.00
2023-04-20T12:33:24.123Z,37.00
2023-04-20T12:35:54.008Z,36.90
2023-04-20T12:38:24.194Z,37.00
2023-04-20T12:40:53.942Z,36.90
2023-04-20T12:43:26.768Z,36.80
2023-04-20T12:45:56.936Z,36.70
2023-04-20T12:48:26.632Z,36.70
2023-04-20T12:50:56.501Z,36.70
2023-04-20T12:53:26.253Z,36.70
2023-04-20T12:56:01.015Z,36.70
2023-04-20T12:58:31.555Z,36.60
2023-04-20T13:01:01.424Z,36.50
2023-04-20T13:03:31.832Z,36.40
2023-04-20T13:06:05.158Z,36.40
2023-04-20T13:08:35.180Z,36.40
2023-04-20T13:11:05.586Z,36.40
2023-04-20T13:13:35.472Z,36.20
2023-04-20T13:16:05.171Z,36.20
2023-04-20T13:18:36.137Z,36.10
2023-04-20T13:21:06.039Z,36.20
2023-04-20T13:23:36.144Z,36.30
2023-04-20T13:26:06.887Z,36.30
2023-04-20T13:28:37.148Z,36.20
2023-04-20T13:31:06.995Z,36.30
2023-04-20T13:33:37.216Z,36.40
2023-04-20T13:36:06.984Z,36.30
2023-04-20T13:38:38.251Z,36.10
2023-04-20T13:41:11.039Z,36.30
2023-04-20T13:43:40.999Z,36.30
2023-04-20T13:46:10.756Z,36.20
2023-04-20T13:48:40.654Z,36.20
2023-04-20T13:51:10.421Z,36.30
2023-04-20T13:53:40.540Z,36.30
2023-04-20T13:56:10.925Z,36.10
2023-04-20T13:58:40.967Z,36.00
2023-04-20T14:01:12.684Z,36.00
2023-04-20T14:03:44.716Z,35.90
2023-04-20T14:06:14.858Z,35.90
2023-04-20T14:08:44.608Z,35.80
2023-04-20T14:11:14.701Z,35.80
2023-04-20T14:13:45.760Z,35.60
2023-04-20T14:16:16.529Z,35.60
2023-04-20T14:18:47.735Z,35.70
2023-04-20T14:21:18.062Z,35.50
2023-04-20T14:23:47.870Z,35.40
2023-04-20T14:26:17.779Z,35.30
2023-04-20T14:28:48.597Z,35.40
2023-04-20T14:31:18.790Z,35.20
2023-04-20T14:33:48.543Z,35.30
2023-04-20T14:36:18.446Z,35.30
2023-04-20T14:38:48.147Z,35.10
2023-04-20T14:41:18.837Z,34.90
2023-04-20T14:43:48.666Z,34.80
2023-04-20T14:46:18.724Z,34.60
2023-04-20T14:48:48.552Z,34.50
2023-04-20T14:51:20.477Z,34.70
2023-04-20T14:53:50.527Z,34.70
2023-04-20T14:56:23.814Z,34.80
2023-04-20T14:58:58.614Z,34.80
2023-04-20T15:01:29.114Z,34.70
2023-04-20T15:03:59.092Z,34.80
2023-04-20T15:06:29.751Z,34.80
2023-04-20T15:08:59.830Z,34.70
2023-04-20T15:11:29.748Z,34.70
2023-04-20T15:13:59.505Z,34.80
2023-04-20T15:16:29.556Z,34.70
2023-04-20T15:18:59.356Z,34.50
2023-04-20T15:21:29.972Z,34.40
2023-04-20T15:23:59.840Z,34.20
2023-04-20T15:26:30.046Z,34.10
2023-04-20T15:28:59.797Z,34.10
2023-04-20T15:31:29.849Z,34.20
2023-04-20T15:34:02.374Z,34.30
2023-04-20T15:36:32.478Z,34.20
2023-04-20T15:39:02.375Z,34.10
2023-04-20T15:41:32.253Z,34.10
2023-04-20T15:44:01.911Z,34.20
2023-04-20T15:46:32.466Z,34.20
2023-04-20T15:49:02.449Z,34.10
2023-04-20T15:51:32.227Z,33.90
2023-04-20T15:54:03.084Z,33.90
2023-04-20T15:56:33.535Z,34.10
2023-04-20T15:59:03.897Z,34.20
2023-04-20T16:01:36.886Z,34.10
2023-04-20T16:04:07.678Z,33.80
2023-04-20T16:06:38.917Z,33.40
2023-04-20T16:09:09.017Z,33.20
2023-04-20T16:11:38.738Z,33.20
2023-04-20T16:14:08.745Z,33.20
2023-04-20T16:16:38.319Z,33.30
2023-04-20T16:19:08.399Z,33.20
2023-04-20T16:21:38.385Z,33.20
2023-04-20T16:24:08.918Z,33.10
2023-04-20T16:26:39.503Z,33.00
2023-04-20T16:29:11.439Z,33.00
2023-04-20T16:31:42.519Z,33.10
2023-04-20T16:34:12.646Z,33.30
2023-04-20T16:36:42.362Z,33.20
2023-04-20T16:39:12.323Z,33.20
2023-04-20T16:41:42.195Z,33.30
2023-04-20T16:44:15.104Z,33.10
2023-04-20T16:46:45.687Z,33.20
2023-04-20T16:49:15.768Z,33.20
2023-04-20T16:51:45.673Z,33.30
2023-04-20T16:54:15.674Z,33.20
2023-04-20T16:56:46.110Z,33.20
2023-04-20T16:59:16.102Z,33.10
2023-04-20T17:01:45.751Z,33.00
2023-04-20T17:04:15.693Z,32.90
2023-04-20T17:06:45.504Z,33.00
2023-04-20T17:09:15.900Z,32.80
2023-04-20T17:11:45.514Z,32.90
2023-04-20T17:14:15.498Z,32.90
2023-04-20T17:16:45.256Z,32.80
2023-04-20T17:19:15.261Z,32.90
2023-04-20T17:21:47.033Z,32.80
2023-04-20T17:24:17.798Z,32.60
2023-04-20T17:26:47.982Z,32.60
2023-04-20T17:29:18.068Z,32.50
2023-04-20T17:31:48.246Z,32.60
2023-04-20T17:34:18.460Z,32.60
2023-04-20T17:36:48.445Z,32.50
2023-04-20T17:39:18.462Z,32.40
2023-04-20T17:41:48.102Z,32.60
2023-04-20T17:44:18.113Z,32.70
2023-04-20T17:46:47.972Z,32.70
2023-04-20T17:49:17.909Z,32.50
2023-04-20T17:51:47.546Z,32.60
2023-04-20T17:54:17.778Z,32.60
2023-04-20T17:56:48.291Z,32.50
2023-04-20T17:59:18.338Z,32.50
2023-04-20T18:01:49.781Z,32.70
2023-04-20T18:04:20.410Z,32.40
2023-04-20T18:06:51.078Z,32.40
2023-04-20T18:09:20.860Z,32.40
2023-04-20T18:11:50.845Z,32.60
2023-04-20T18:14:20.636Z,32.60
2023-04-20T18:16:53.367Z,32.60
2023-04-20T18:19:23.237Z,32.50
2023-04-20T18:21:53.218Z,32.60
2023-04-20T18:24:23.328Z,32.20
2023-04-20T18:26:53.041Z,32.20
2023-04-20T18:29:23.529Z,32.00
2023-04-20T18:31:55.083Z,31.90
2023-04-20T18:34:26.484Z,32.00
2023-04-20T18:36:56.411Z,31.80
2023-04-20T18:39:26.936Z,31.60
2023-04-20T18:41:56.907Z,31.50
2023-04-20T18:44:27.103Z,31.40
2023-04-20T18:46:57.097Z,31.40
2023-04-20T18:49:27.135Z,31.40
2023-04-20T18:51:57.142Z,31.40
2023-04-20T18:54:26.835Z,31.40
2023-04-20T18:56:58.121Z,31.40
2023-04-20T18:59:29.018Z,31.40
2023-04-20T19:01:58.804Z,31.40
2023-04-20T19:04:29.153Z,31.40
2023-04-20T19:06:58.809Z,31.40
2023-04-20T19:09:28.585Z,31.40
2023-04-20T19:11:58.612Z,31.40
2023-04-20T19:14:28.430Z,31.40
2023-04-20T19:16:58.177Z,31.40
2023-04-20T19:19:28.007Z,31.40
2023-04-20T19:22:00.437Z,31.30
2023-04-20T19:24:30.568Z,31.30
2023-04-20T19:27:00.575Z,31.20
2023-04-20T19:29:30.976Z,31.20
2023-04-20T19:32:00.716Z,31.30
2023-04-20T19:34:30.803Z,31.50
2023-04-20T19:37:00.420Z,31.30
2023-04-20T19:39:30.950Z,31.40
2023-04-20T19:42:01.601Z,31.40
2023-04-20T19:44:31.230Z,31.30
2023-04-20T19:47:01.127Z,31.30
2023-04-20T19:49:30.779Z,31.30
2023-04-20T19:52:00.672Z,31.20
2023-04-20T19:54:30.320Z,31.00
2023-04-20T19:57:01.011Z,31.10
2023-04-20T19:59:31.863Z,31.10
2023-04-20T20:02:02.057Z,31.20
2023-04-20T20:04:33.305Z,31.10
2023-04-20T20:07:03.308Z,31.00
2023-04-20T20:09:33.030Z,31.10
2023-04-20T20:12:03.488Z,31.10
2023-04-20T20:14:33.940Z,31.10
2023-04-20T20:17:04.567Z,31.10
2023-04-20T20:19:34.264Z,31.20
2023-04-20T20:22:04.577Z,31.20
2023-04-20T20:24:34.289Z,31.20
2023-04-20T20:27:04.697Z,31.00
2023-04-20T20:29:34.494Z,30.80
2023-04-20T20:32:06.712Z,30.80
2023-04-20T20:34:36.751Z,30.70
2023-04-20T20:37:06.640Z,30.60
2023-04-20T20:39:36.531Z,30.80
2023-04-20T20:42:08.960Z,30.70
2023-04-20T20:44:41.189Z,30.70
2023-04-20T20:47:11.378Z,30.50
2023-04-20T20:49:41.133Z,30.50
2023-04-20T20:52:11.268Z,30.60
2023-04-20T20:54:40.888Z,30.60
2023-04-20T20:57:11.865Z,30.60
2023-04-20T20:59:42.115Z,30.50
2023-04-20T21:02:12.006Z,30.40
2023-04-20T21:04:42.129Z,30.30
2023-04-20T21:07:11.895Z,30.20
2023-04-20T21:09:41.770Z,30.30
2023-04-20T21:12:11.556Z,30.30
2023-04-20T21:14:41.469Z,30.20
2023-04-20T21:17:12.405Z,30.10
2023-04-20T21:19:42.452Z,30.00
2023-04-20T21:22:12.479Z,30.00
2023-04-20T21:24:42.636Z,30.00
2023-04-20T21:27:12.372Z,29.80
2023-04-20T21:29:42.492Z,29.80
2023-04-20T21:32:12.313Z,29.80
2023-04-20T21:34:42.251Z,29.90
2023-04-20T21:37:15.872Z,29.80
2023-04-20T21:39:45.977Z,29.80
2023-04-20T21:42:15.692Z,29.90
2023-04-20T21:44:45.597Z,29.90
2023-04-20T21:47:15.324Z,29.80
2023-04-20T21:49:45.331Z,29.60
2023-04-20T21:52:14.982Z,29.70
2023-04-20T21:54:44.929Z,29.90
2023-04-20T21:57:15.203Z,29.80
2023-04-20T21:59:45.389Z,29.80
2023-04-20T22:02:15.136Z,29.80
2023-04-20T22:04:45.184Z,29.70
2023-04-20T22:07:16.041Z,29.70
2023-04-20T22:09:46.448Z,29.60
2023-04-20T22:12:18.084Z,29.60
2023-04-20T22:14:49.828Z,29.60
2023-04-20T22:17:20.851Z,29.60
2023-04-20T22:19:50.885Z,29.60
2023-04-20T22:22:20.793Z,29.80
2023-04-20T22:24:50.654Z,29.70
2023-04-20T22:27:20.346Z,29.60
2023-04-20T22:29:50.428Z,29.50
2023-04-20T22:32:20.144Z,29.50
2023-04-20T22:34:50.004Z,29.50
2023-04-20T22:37:19.753Z,29.50
2023-04-20T22:39:49.897Z,29.40
2023-04-20T22:42:19.558Z,29.30
2023-04-20T22:44:49.521Z,29.30
2023-04-20T22:47:19.424Z,29.40
2023-04-20T22:49:50.506Z,29.50
2023-04-20T22:52:20.476Z,29.30
2023-04-20T22:54:50.245Z,29.30
2023-04-20T22:57:20.713Z,29.30
2023-04-20T22:59:50.585Z,29.20
2023-04-20T23:02:20.736Z,29.20
2023-04-20T23:04:50.471Z,29.40
2023-04-20T23:07:21.016Z,29.40
2023-04-20T23:09:50.789Z,29.30
2023-04-20T23:12:22.241Z,29.50
2023-04-20T23:14:52.237Z,29.40
2023-04-20T23:17:22.169Z,29.30
2023-04-20T23:19:52.430Z,29.40
2023-04-20T23:22:22.382Z,29.40
2023-04-20T23:24:52.450Z,29.50
2023-04-20T23:27:22.281Z,29.60
2023-04-20T23:29:52.389Z,29.50
2023-04-20T23:32:22.349Z,29.40
2023-04-20T23:34:52.432Z,29.60
2023-04-20T23:37:24.372Z,29.70
2023-04-20T23:39:54.447Z,29.50
2023-04-20T23:42:24.101Z,29.50
2023-04-20T23:44:53.964Z,29.40
2023-04-20T23:47:23.658Z,29.40
2023-04-20T23:49:53.787Z,29.50
2023-04-20T23:52:23.549Z,29.70
2023-04-20T23:54:53.454Z,29.80
2023-04-20T23:57:23.629Z,29.70
2023-04-20T23:59:53.505Z,29.60
